• Join FlightAware (Why Join?)
  • Login
  • US Flag 
01:52AM EDT


 

Airport Tracker/Info


-or-


 

Live Flight TrackerFlight Track Log ✈ SWA385 ✈ 19-Jul-2013 ✈ KSMF - KSNA

Flight Track Log - Related Links

Times and Time Zones

All times are in EDT time to prevent confusion due to time zone crossing. See the SWA385 flight status page for this flight to view local times or setup timezone preferences in your user account.

Time Position Orientation Groundspeed Altitude Reporting Facility
EDT Latitude Longitude Course Direction KTS MPH feet Rate Location/Type
12:11AM 38.6500 -121.5500 145° Southeast 209 241 3,700  Level Northern Cal TRACON
12:12AM 38.6000 -121.4667 127° Southeast 276 318 6,300 2,940 Climbing Northern Cal TRACON
12:14AM 38.5353 -121.3142 118° Southeast 295 339 12,200 3,480 Climbing Oakland Center
12:15AM 38.4839 -121.2103 122° Southeast 337 388 16,400 3,900 Climbing Oakland Center
12:16AM 38.4231 -121.0833 121° Southeast 365 420 20,200 3,240 Climbing Oakland Center
12:17AM 38.3669 -120.9647 121° Southeast 388 447 23,000 1,320 Climbing Oakland Center
12:18AM 38.3072 -120.8431 122° Southeast 402 463 23,000 540 Level Oakland Center
12:19AM 38.2483 -120.7219 122° Southeast 403 464 24,200 960 Climbing Oakland Center
12:20AM 38.1861 -120.5997 123° Southeast 410 472 25,000 420 Climbing Oakland Center
12:21AM 38.1247 -120.4747 122° Southeast 415 478 25,100 960 Climbing Oakland Center
12:22AM 38.0625 -120.3494 122° Southeast 418 481 27,000 900 Climbing Oakland Center
12:23AM 37.9975 -120.2208 123° Southeast 429 494 27,000 120 Level Oakland Center
12:24AM 37.9344 -120.0942 122° Southeast 427 491 27,300 1,380 Climbing Oakland Center
12:25AM 37.8267 -120.0267 154° Southeast 432 497 29,800 1,800 Climbing Oakland Center
12:26AM 37.6964 -119.9489 155° Southeast 432 497 31,000 540 Climbing Oakland Center
12:27AM 37.5897 -119.8833 154° Southeast 429 494 31,000  Level Oakland Center
12:28AM 37.4814 -119.8189 155° Southeast 430 495 31,000  Level Oakland Center
12:29AM 37.3739 -119.7550 155° Southeast 427 491 31,000  Level Oakland Center
12:30AM 37.2672 -119.6903 154° Southeast 429 494 31,000  Level Oakland Center
12:31AM 37.1497 -119.6719 173° South 425 489 31,000  Level Oakland Center
12:32AM 37.0314 -119.6656 178° South 427 491 31,000 900 Level Oakland Center
12:33AM 36.9139 -119.6600 178° South 424 488 32,900 2,160 Climbing Oakland Center
12:34AM 36.7972 -119.6553 178° South 420 483 35,400 1,980 Climbing Oakland Center
12:35AM 36.6833 -119.6503 178° South 409 471 37,000 780 Climbing Oakland Center
12:36AM 36.5711 -119.6450 178° South 400 460 37,000  Level Oakland Center
12:37AM 36.4589 -119.6378 177° South 402 463 37,000  Level Oakland Center
12:38AM 36.3467 -119.6328 178° South 401 461 37,000  Level Oakland Center
12:39AM 36.2108 -119.6261 178° South 404 465 37,000  Level Oakland Center
12:40AM 36.0975 -119.6200 178° South 408 470 37,000  Level Oakland Center
12:41AM 35.9839 -119.6144 178° South 407 468 37,000  Level Oakland Center
12:42AM 35.8700 -119.6186 182° South 409 471 37,000  Level Oakland Center
12:43AM 35.7556 -119.6228 182° South 408 470 37,000  Level Oakland Center
12:44AM 35.6403 -119.6256 181° South 412 474 37,000  Level Oakland Center
12:45AM 35.5550 -119.5956 164° South 409 471 37,000  Level Los Angeles Center
12:46AM 35.4286 -119.5267 156° South 410 472 37,000  Level Los Angeles Center
12:47AM 35.3250 -119.4700 156° South 407 468 37,000  Level Los Angeles Center
12:48AM 35.2203 -119.4139 156° South 408 470 37,000  Level Los Angeles Center
12:49AM 35.1150 -119.3578 156° South 410 472 37,000  Level Los Angeles Center
12:50AM 35.0106 -119.3017 156° South 410 472 37,000  Level Los Angeles Center
12:51AM 34.9056 -119.2444 156° South 413 475 37,000 -60 Level Los Angeles Center
12:52AM 34.8003 -119.1881 156° South 412 474 36,900 -1,080 Descending Los Angeles Center
12:53AM 34.6961 -119.1331 157° South 408 470 34,800 -2,400 Descending Los Angeles Center
12:55AM 34.5817 -119.0742 157° South 412 474 31,500 -3,000 Descending Los Angeles Center
12:56AM 34.4542 -119.0078 157° South 414 476 28,100 -2,940 Descending Los Angeles Center
12:57AM 34.3503 -118.9522 156° South 411 473 25,500 -2,520 Descending Los Angeles Center
12:58AM 34.2492 -118.8969 156° South 400 460 23,000 -2,640 Descending Los Angeles Center
12:59AM 34.1322 -118.8358 157° South 382 440 20,100 -2,580 Descending Los Angeles Center
01:00AM 34.0392 -118.7872 157° South 368 423 17,800 -2,280 Descending Los Angeles Center
01:01AM 33.9431 -118.7367 156° South 358 412 15,100 -1,680 Descending Los Angeles Center
01:02AM 33.8300 -118.6886 161° South 351 404 14,000 -540 Descending Los Angeles Center
01:03AM 33.7450 -118.6583 164° South 352 405 14,000 -960 Level Los Angeles Center
01:04AM 33.6556 -118.6256 163° South 339 390 12,100 -2,040 Descending Los Angeles Center
01:05AM 33.6044 -118.5422 126° Southeast 314 361 9,800 -1,860 Descending Los Angeles Center
01:06AM 33.5486 -118.4450 125° Southeast 301 346 8,400 -1,500 Descending Los Angeles Center
01:07AM 33.5567 -118.3506 84° East 295 339 6,800 -1,620 Descending Los Angeles Center
01:08AM 33.5653 -118.2569 84° East 290 334 5,100 -900 Descending Los Angeles Center
01:09AM 33.5742 -118.1650 83° East 286 329 5,000 -60 Descending Los Angeles Center
01:10AM 33.6006 -118.0714 71° East 274 315 5,000  Level Los Angeles Center
01:11AM 33.6500 -118.0333 33° Northeast 258 297 5,000  Level Southern California TRACON
01:12AM 33.7000 -117.9833 40° Northeast 241 277 5,000 -600 Level Southern California TRACON
01:13AM 33.7500 -117.9500 29° Northeast 231 266 3,800 -960 Descending Southern California TRACON
01:14AM 33.8167 -117.9333 12° North 214 246 3,000 -420 Descending Southern California TRACON
01:15AM 33.8667 -117.9167 15° North 190 219 3,000  Level Southern California TRACON
01:16AM 33.9000 -117.8667 51° Northeast 197 227 3,000  Level Southern California TRACON
01:17AM 33.9167 -117.8167 68° East 184 212 3,000  Level Southern California TRACON
01:18AM 33.9333 -117.7500 73° East 183 211 3,000  Level Southern California TRACON
01:19AM 33.8833 -117.7500 180° South 184 212 3,000  Level Southern California TRACON
01:20AM 33.8333 -117.7667 195° South 188 216 3,000 -300 Level Southern California TRACON
01:21AM 33.8000 -117.8000 220° Southwest 184 212 2,500 -660 Descending Southern California TRACON
01:22AM 33.7500 -117.8167 195° South 151 174 1,700 -780 Descending Southern California TRACON
01:23AM 33.7167 -117.8333 203° Southwest 122 140 1,000 -720 Descending Southern California TRACON
01:24AM 33.7000 -117.8667 239° Southwest 123 142 300 -720 Descending Southern California TRACON